sensor_id;sensor_type;location;lat;lon;timestamp;P1;durP1;ratioP1;P2;durP2;ratioP2
4202;SDS011;2115;51.038;7.006;2023-03-03T00:00:37;472.63;;;116.50;;
4202;SDS011;2115;51.038;7.006;2023-03-03T00:03:03;489.10;;;121.83;;
4202;SDS011;2115;51.038;7.006;2023-03-03T00:05:31;481.67;;;118.47;;
4202;SDS011;2115;51.038;7.006;2023-03-03T00:07:58;479.13;;;118.60;;
4202;SDS011;2115;51.038;7.006;2023-03-03T00:10:24;478.53;;;119.40;;
4202;SDS011;2115;51.038;7.006;2023-03-03T00:12:50;476.47;;;118.37;;
4202;SDS011;2115;51.038;7.006;2023-03-03T00:15:16;494.13;;;124.13;;
4202;SDS011;2115;51.038;7.006;2023-03-03T00:17:44;477.90;;;119.23;;
4202;SDS011;2115;51.038;7.006;2023-03-03T00:25:53;497.97;;;130.63;;
4202;SDS011;2115;51.038;7.006;2023-03-03T00:28:29;476.90;;;120.40;;
4202;SDS011;2115;51.038;7.006;2023-03-03T00:30:57;466.23;;;116.73;;
4202;SDS011;2115;51.038;7.006;2023-03-03T00:35:52;479.13;;;120.80;;
4202;SDS011;2115;51.038;7.006;2023-03-03T00:38:19;467.77;;;116.07;;
4202;SDS011;2115;51.038;7.006;2023-03-03T00:40:44;486.37;;;124.40;;
4202;SDS011;2115;51.038;7.006;2023-03-03T00:43:17;486.03;;;121.43;;
4202;SDS011;2115;51.038;7.006;2023-03-03T00:45:51;475.00;;;118.73;;
4202;SDS011;2115;51.038;7.006;2023-03-03T00:51:01;468.43;;;116.37;;
4202;SDS011;2115;51.038;7.006;2023-03-03T00:53:36;471.00;;;118.33;;
4202;SDS011;2115;51.038;7.006;2023-03-03T00:56:01;471.97;;;118.97;;
4202;SDS011;2115;51.038;7.006;2023-03-03T00:58:26;484.17;;;124.53;;
4202;SDS011;2115;51.038;7.006;2023-03-03T01:00:53;466.27;;;118.57;;
4202;SDS011;2115;51.038;7.006;2023-03-03T01:03:21;478.33;;;124.17;;
4202;SDS011;2115;51.038;7.006;2023-03-03T01:05:49;464.20;;;117.70;;
4202;SDS011;2115;51.038;7.006;2023-03-03T01:08:14;468.17;;;118.83;;
4202;SDS011;2115;51.038;7.006;2023-03-03T01:10:42;479.70;;;123.30;;
4202;SDS011;2115;51.038;7.006;2023-03-03T01:13:10;480.30;;;122.33;;
4202;SDS011;2115;51.038;7.006;2023-03-03T01:15:37;465.97;;;116.90;;
4202;SDS011;2115;51.038;7.006;2023-03-03T01:18:03;470.30;;;118.20;;
4202;SDS011;2115;51.038;7.006;2023-03-03T01:20:28;466.77;;;117.83;;
4202;SDS011;2115;51.038;7.006;2023-03-03T01:22:54;468.40;;;116.83;;
4202;SDS011;2115;51.038;7.006;2023-03-03T01:25:19;478.10;;;122.40;;
4202;SDS011;2115;51.038;7.006;2023-03-03T01:27:45;463.50;;;116.60;;
4202;SDS011;2115;51.038;7.006;2023-03-03T01:30:10;483.73;;;122.50;;
4202;SDS011;2115;51.038;7.006;2023-03-03T01:32:36;470.83;;;117.40;;
4202;SDS011;2115;51.038;7.006;2023-03-03T01:35:01;451.00;;;113.00;;
4202;SDS011;2115;51.038;7.006;2023-03-03T01:37:27;477.20;;;121.57;;
4202;SDS011;2115;51.038;7.006;2023-03-03T01:39:53;463.97;;;117.30;;
4202;SDS011;2115;51.038;7.006;2023-03-03T01:42:19;475.53;;;122.70;;
4202;SDS011;2115;51.038;7.006;2023-03-03T01:44:45;460.10;;;117.50;;
4202;SDS011;2115;51.038;7.006;2023-03-03T01:49:50;474.57;;;124.37;;
4202;SDS011;2115;51.038;7.006;2023-03-03T01:52:30;454.90;;;116.50;;
4202;SDS011;2115;51.038;7.006;2023-03-03T01:54:59;456.30;;;115.20;;
4202;SDS011;2115;51.038;7.006;2023-03-03T01:57:28;454.37;;;115.37;;
4202;SDS011;2115;51.038;7.006;2023-03-03T01:59:56;458.00;;;118.67;;
4202;SDS011;2115;51.038;7.006;2023-03-03T02:02:23;458.40;;;114.80;;
4202;SDS011;2115;51.038;7.006;2023-03-03T02:04:49;455.37;;;115.63;;
4202;SDS011;2115;51.038;7.006;2023-03-03T02:07:15;448.30;;;113.93;;
4202;SDS011;2115;51.038;7.006;2023-03-03T02:12:37;452.90;;;113.50;;
4202;SDS011;2115;51.038;7.006;2023-03-03T02:15:15;448.63;;;118.17;;
4202;SDS011;2115;51.038;7.006;2023-03-03T02:17:41;454.37;;;117.07;;
4202;SDS011;2115;51.038;7.006;2023-03-03T02:20:11;460.67;;;119.63;;
4202;SDS011;2115;51.038;7.006;2023-03-03T02:22:46;447.17;;;115.53;;
4202;SDS011;2115;51.038;7.006;2023-03-03T02:25:40;455.67;;;120.30;;
4202;SDS011;2115;51.038;7.006;2023-03-03T02:28:07;445.63;;;114.17;;
4202;SDS011;2115;51.038;7.006;2023-03-03T02:30:35;453.07;;;117.43;;
4202;SDS011;2115;51.038;7.006;2023-03-03T02:33:01;443.50;;;113.97;;
4202;SDS011;2115;51.038;7.006;2023-03-03T02:35:31;443.33;;;115.03;;
4202;SDS011;2115;51.038;7.006;2023-03-03T02:38:01;462.43;;;122.20;;
4202;SDS011;2115;51.038;7.006;2023-03-03T02:40:35;439.90;;;111.40;;
4202;SDS011;2115;51.038;7.006;2023-03-03T02:43:02;451.47;;;117.03;;
4202;SDS011;2115;51.038;7.006;2023-03-03T02:45:29;444.63;;;115.30;;
4202;SDS011;2115;51.038;7.006;2023-03-03T02:47:54;451.83;;;118.43;;
4202;SDS011;2115;51.038;7.006;2023-03-03T02:50:20;442.53;;;113.13;;
4202;SDS011;2115;51.038;7.006;2023-03-03T02:52:45;446.97;;;115.10;;
4202;SDS011;2115;51.038;7.006;2023-03-03T02:55:11;452.47;;;116.20;;
4202;SDS011;2115;51.038;7.006;2023-03-03T02:57:36;458.43;;;120.63;;
4202;SDS011;2115;51.038;7.006;2023-03-03T03:00:02;450.70;;;120.27;;
4202;SDS011;2115;51.038;7.006;2023-03-03T03:02:27;442.43;;;114.40;;
4202;SDS011;2115;51.038;7.006;2023-03-03T03:04:53;437.50;;;113.00;;
4202;SDS011;2115;51.038;7.006;2023-03-03T03:07:18;456.80;;;118.93;;
4202;SDS011;2115;51.038;7.006;2023-03-03T03:09:44;438.43;;;112.00;;
4202;SDS011;2115;51.038;7.006;2023-03-03T03:12:09;451.60;;;118.00;;
4202;SDS011;2115;51.038;7.006;2023-03-03T03:14:35;445.07;;;114.83;;
4202;SDS011;2115;51.038;7.006;2023-03-03T03:17:00;466.93;;;123.23;;
4202;SDS011;2115;51.038;7.006;2023-03-03T03:19:26;460.67;;;118.20;;
4202;SDS011;2115;51.038;7.006;2023-03-03T03:21:52;445.37;;;116.73;;
4202;SDS011;2115;51.038;7.006;2023-03-03T03:24:17;466.70;;;124.37;;
4202;SDS011;2115;51.038;7.006;2023-03-03T03:26:43;443.00;;;113.47;;
4202;SDS011;2115;51.038;7.006;2023-03-03T03:29:08;450.67;;;117.23;;
4202;SDS011;2115;51.038;7.006;2023-03-03T03:31:34;437.60;;;113.07;;
4202;SDS011;2115;51.038;7.006;2023-03-03T03:34:00;441.07;;;116.40;;
4202;SDS011;2115;51.038;7.006;2023-03-03T03:36:26;439.47;;;113.97;;
4202;SDS011;2115;51.038;7.006;2023-03-03T03:38:52;455.37;;;117.03;;
4202;SDS011;2115;51.038;7.006;2023-03-03T03:41:18;437.83;;;111.87;;
4202;SDS011;2115;51.038;7.006;2023-03-03T03:43:43;438.83;;;111.47;;
4202;SDS011;2115;51.038;7.006;2023-03-03T03:46:09;436.03;;;111.77;;
4202;SDS011;2115;51.038;7.006;2023-03-03T03:48:34;452.53;;;117.20;;
4202;SDS011;2115;51.038;7.006;2023-03-03T03:50:59;442.53;;;112.63;;
4202;SDS011;2115;51.038;7.006;2023-03-03T03:53:25;438.77;;;111.33;;
4202;SDS011;2115;51.038;7.006;2023-03-03T03:55:50;443.23;;;113.90;;
4202;SDS011;2115;51.038;7.006;2023-03-03T03:58:16;436.30;;;111.47;;
4202;SDS011;2115;51.038;7.006;2023-03-03T04:00:42;450.20;;;116.67;;
4202;SDS011;2115;51.038;7.006;2023-03-03T04:03:09;441.70;;;113.90;;
4202;SDS011;2115;51.038;7.006;2023-03-03T04:05:35;449.00;;;118.67;;
4202;SDS011;2115;51.038;7.006;2023-03-03T04:08:00;440.90;;;114.90;;
4202;SDS011;2115;51.038;7.006;2023-03-03T04:10:26;434.17;;;110.00;;
4202;SDS011;2115;51.038;7.006;2023-03-03T04:12:51;444.33;;;115.13;;
4202;SDS011;2115;51.038;7.006;2023-03-03T04:15:16;444.87;;;113.83;;
4202;SDS011;2115;51.038;7.006;2023-03-03T04:17:42;445.20;;;113.83;;
4202;SDS011;2115;51.038;7.006;2023-03-03T04:20:09;433.97;;;111.33;;
4202;SDS011;2115;51.038;7.006;2023-03-03T04:22:35;428.37;;;112.43;;
4202;SDS011;2115;51.038;7.006;2023-03-03T04:25:02;431.53;;;111.90;;
4202;SDS011;2115;51.038;7.006;2023-03-03T04:27:32;449.17;;;116.80;;
4202;SDS011;2115;51.038;7.006;2023-03-03T04:29:58;436.20;;;112.70;;
4202;SDS011;2115;51.038;7.006;2023-03-03T04:32:24;453.60;;;115.60;;
4202;SDS011;2115;51.038;7.006;2023-03-03T04:34:49;435.87;;;113.53;;
4202;SDS011;2115;51.038;7.006;2023-03-03T04:37:15;495.67;;;130.23;;
4202;SDS011;2115;51.038;7.006;2023-03-03T04:39:40;435.00;;;111.17;;
4202;SDS011;2115;51.038;7.006;2023-03-03T04:42:05;451.70;;;118.07;;
4202;SDS011;2115;51.038;7.006;2023-03-03T04:44:32;451.70;;;119.20;;
4202;SDS011;2115;51.038;7.006;2023-03-03T04:46:57;442.20;;;114.03;;
4202;SDS011;2115;51.038;7.006;2023-03-03T04:49:23;469.57;;;122.67;;
4202;SDS011;2115;51.038;7.006;2023-03-03T04:51:48;438.63;;;113.13;;
4202;SDS011;2115;51.038;7.006;2023-03-03T04:54:14;437.97;;;108.40;;
4202;SDS011;2115;51.038;7.006;2023-03-03T04:56:39;449.33;;;116.17;;
4202;SDS011;2115;51.038;7.006;2023-03-03T04:59:04;443.53;;;112.63;;
4202;SDS011;2115;51.038;7.006;2023-03-03T05:01:30;433.80;;;109.10;;
4202;SDS011;2115;51.038;7.006;2023-03-03T05:03:55;437.83;;;112.70;;
4202;SDS011;2115;51.038;7.006;2023-03-03T05:06:20;458.60;;;119.90;;
4202;SDS011;2115;51.038;7.006;2023-03-03T05:08:46;445.83;;;114.47;;
4202;SDS011;2115;51.038;7.006;2023-03-03T05:11:11;445.60;;;111.60;;
4202;SDS011;2115;51.038;7.006;2023-03-03T05:13:38;440.20;;;110.30;;
4202;SDS011;2115;51.038;7.006;2023-03-03T05:16:03;447.07;;;112.17;;
4202;SDS011;2115;51.038;7.006;2023-03-03T05:18:29;446.03;;;113.13;;
4202;SDS011;2115;51.038;7.006;2023-03-03T05:20:54;446.73;;;111.93;;
4202;SDS011;2115;51.038;7.006;2023-03-03T05:23:20;435.70;;;109.40;;
4202;SDS011;2115;51.038;7.006;2023-03-03T05:25:46;451.00;;;115.57;;
4202;SDS011;2115;51.038;7.006;2023-03-03T05:28:12;446.23;;;111.30;;
4202;SDS011;2115;51.038;7.006;2023-03-03T05:30:38;440.23;;;108.03;;
4202;SDS011;2115;51.038;7.006;2023-03-03T05:33:03;447.77;;;114.33;;
4202;SDS011;2115;51.038;7.006;2023-03-03T05:35:30;454.40;;;118.10;;
4202;SDS011;2115;51.038;7.006;2023-03-03T05:37:55;448.57;;;113.40;;
4202;SDS011;2115;51.038;7.006;2023-03-03T05:40:22;454.87;;;117.70;;
4202;SDS011;2115;51.038;7.006;2023-03-03T05:42:48;454.63;;;113.37;;
4202;SDS011;2115;51.038;7.006;2023-03-03T05:45:14;452.97;;;114.73;;
4202;SDS011;2115;51.038;7.006;2023-03-03T05:47:39;451.00;;;114.20;;
4202;SDS011;2115;51.038;7.006;2023-03-03T05:50:05;452.63;;;115.70;;
4202;SDS011;2115;51.038;7.006;2023-03-03T05:52:30;456.17;;;118.47;;
4202;SDS011;2115;51.038;7.006;2023-03-03T05:54:56;447.30;;;114.00;;
4202;SDS011;2115;51.038;7.006;2023-03-03T05:57:24;446.10;;;112.20;;
4202;SDS011;2115;51.038;7.006;2023-03-03T05:59:55;456.97;;;116.60;;
4202;SDS011;2115;51.038;7.006;2023-03-03T06:02:21;454.17;;;113.23;;
4202;SDS011;2115;51.038;7.006;2023-03-03T06:04:49;457.23;;;114.57;;
4202;SDS011;2115;51.038;7.006;2023-03-03T06:07:18;454.10;;;114.97;;
4202;SDS011;2115;51.038;7.006;2023-03-03T06:09:46;451.80;;;112.93;;
4202;SDS011;2115;51.038;7.006;2023-03-03T06:12:11;454.60;;;113.03;;
4202;SDS011;2115;51.038;7.006;2023-03-03T06:14:36;449.00;;;111.10;;
4202;SDS011;2115;51.038;7.006;2023-03-03T06:17:02;460.67;;;117.30;;
4202;SDS011;2115;51.038;7.006;2023-03-03T06:19:27;464.80;;;119.00;;
4202;SDS011;2115;51.038;7.006;2023-03-03T06:21:53;460.57;;;116.33;;
4202;SDS011;2115;51.038;7.006;2023-03-03T06:24:18;457.90;;;115.13;;
4202;SDS011;2115;51.038;7.006;2023-03-03T06:26:44;447.37;;;111.67;;
4202;SDS011;2115;51.038;7.006;2023-03-03T06:29:09;462.43;;;117.50;;
4202;SDS011;2115;51.038;7.006;2023-03-03T06:31:35;459.90;;;115.23;;
4202;SDS011;2115;51.038;7.006;2023-03-03T06:34:00;451.10;;;113.97;;
4202;SDS011;2115;51.038;7.006;2023-03-03T06:36:26;460.40;;;116.60;;
4202;SDS011;2115;51.038;7.006;2023-03-03T06:38:51;455.23;;;114.40;;
4202;SDS011;2115;51.038;7.006;2023-03-03T06:41:16;451.23;;;112.47;;
4202;SDS011;2115;51.038;7.006;2023-03-03T06:43:42;461.00;;;117.60;;
4202;SDS011;2115;51.038;7.006;2023-03-03T06:46:07;449.60;;;112.10;;
4202;SDS011;2115;51.038;7.006;2023-03-03T06:48:33;463.53;;;118.60;;
4202;SDS011;2115;51.038;7.006;2023-03-03T06:50:59;451.53;;;112.80;;
4202;SDS011;2115;51.038;7.006;2023-03-03T06:53:26;453.43;;;113.30;;
4202;SDS011;2115;51.038;7.006;2023-03-03T06:55:52;454.67;;;113.07;;
4202;SDS011;2115;51.038;7.006;2023-03-03T06:58:19;462.43;;;114.70;;
4202;SDS011;2115;51.038;7.006;2023-03-03T07:00:51;455.97;;;114.13;;
4202;SDS011;2115;51.038;7.006;2023-03-03T07:03:22;449.80;;;112.37;;
4202;SDS011;2115;51.038;7.006;2023-03-03T07:05:49;452.50;;;113.57;;
4202;SDS011;2115;51.038;7.006;2023-03-03T07:08:20;446.93;;;109.67;;
4202;SDS011;2115;51.038;7.006;2023-03-03T07:10:47;449.43;;;111.37;;
4202;SDS011;2115;51.038;7.006;2023-03-03T07:15:52;448.53;;;112.37;;
4202;SDS011;2115;51.038;7.006;2023-03-03T07:18:24;457.87;;;114.33;;
4202;SDS011;2115;51.038;7.006;2023-03-03T07:20:54;465.80;;;119.10;;
4202;SDS011;2115;51.038;7.006;2023-03-03T07:23:23;447.07;;;110.67;;
4202;SDS011;2115;51.038;7.006;2023-03-03T07:25:50;454.03;;;114.07;;
4202;SDS011;2115;51.038;7.006;2023-03-03T07:30:46;452.10;;;112.27;;
4202;SDS011;2115;51.038;7.006;2023-03-03T07:33:34;460.90;;;113.23;;
4202;SDS011;2115;51.038;7.006;2023-03-03T07:36:03;458.10;;;114.80;;
4202;SDS011;2115;51.038;7.006;2023-03-03T07:38:45;458.40;;;110.50;;
4202;SDS011;2115;51.038;7.006;2023-03-03T07:41:17;447.70;;;108.50;;
4202;SDS011;2115;51.038;7.006;2023-03-03T07:43:53;448.60;;;109.87;;
4202;SDS011;2115;51.038;7.006;2023-03-03T07:48:55;455.83;;;113.37;;
4202;SDS011;2115;51.038;7.006;2023-03-03T07:54:28;450.80;;;111.40;;
4202;SDS011;2115;51.038;7.006;2023-03-03T08:04:53;458.10;;;112.33;;
4202;SDS011;2115;51.038;7.006;2023-03-03T08:07:20;458.07;;;109.10;;
4202;SDS011;2115;51.038;7.006;2023-03-03T08:09:47;468.83;;;114.93;;
4202;SDS011;2115;51.038;7.006;2023-03-03T08:12:30;458.33;;;111.07;;
4202;SDS011;2115;51.038;7.006;2023-03-03T08:17:44;462.50;;;113.30;;
4202;SDS011;2115;51.038;7.006;2023-03-03T08:23:14;461.53;;;112.50;;
4202;SDS011;2115;51.038;7.006;2023-03-03T08:25:41;465.30;;;112.53;;
4202;SDS011;2115;51.038;7.006;2023-03-03T08:28:07;467.83;;;111.33;;
4202;SDS011;2115;51.038;7.006;2023-03-03T08:30:33;472.00;;;113.90;;
4202;SDS011;2115;51.038;7.006;2023-03-03T08:32:59;479.30;;;116.40;;
4202;SDS011;2115;51.038;7.006;2023-03-03T08:35:25;481.20;;;118.87;;
4202;SDS011;2115;51.038;7.006;2023-03-03T08:37:50;472.30;;;112.27;;
4202;SDS011;2115;51.038;7.006;2023-03-03T08:40:16;480.07;;;115.00;;
4202;SDS011;2115;51.038;7.006;2023-03-03T08:42:41;480.20;;;114.10;;
4202;SDS011;2115;51.038;7.006;2023-03-03T08:45:07;474.50;;;112.20;;
4202;SDS011;2115;51.038;7.006;2023-03-03T08:47:32;485.33;;;117.40;;
4202;SDS011;2115;51.038;7.006;2023-03-03T08:49:57;470.87;;;114.10;;
4202;SDS011;2115;51.038;7.006;2023-03-03T08:52:23;474.30;;;115.63;;
4202;SDS011;2115;51.038;7.006;2023-03-03T08:54:48;469.73;;;114.70;;
4202;SDS011;2115;51.038;7.006;2023-03-03T08:57:14;472.27;;;114.00;;
4202;SDS011;2115;51.038;7.006;2023-03-03T08:59:39;480.07;;;117.53;;
4202;SDS011;2115;51.038;7.006;2023-03-03T09:02:05;468.17;;;113.20;;
4202;SDS011;2115;51.038;7.006;2023-03-03T09:04:31;471.70;;;112.77;;
4202;SDS011;2115;51.038;7.006;2023-03-03T09:06:56;466.73;;;111.67;;
4202;SDS011;2115;51.038;7.006;2023-03-03T09:09:22;470.90;;;113.00;;
4202;SDS011;2115;51.038;7.006;2023-03-03T09:11:47;474.67;;;114.50;;
4202;SDS011;2115;51.038;7.006;2023-03-03T09:14:13;473.60;;;113.60;;
4202;SDS011;2115;51.038;7.006;2023-03-03T09:16:44;480.17;;;116.30;;
4202;SDS011;2115;51.038;7.006;2023-03-03T09:19:15;477.67;;;115.40;;
4202;SDS011;2115;51.038;7.006;2023-03-03T09:21:47;482.27;;;114.33;;
4202;SDS011;2115;51.038;7.006;2023-03-03T09:24:18;480.60;;;114.63;;
4202;SDS011;2115;51.038;7.006;2023-03-03T09:26:50;497.43;;;118.90;;
4202;SDS011;2115;51.038;7.006;2023-03-03T09:29:26;501.33;;;121.43;;
4202;SDS011;2115;51.038;7.006;2023-03-03T09:31:56;491.00;;;116.20;;
4202;SDS011;2115;51.038;7.006;2023-03-03T09:34:37;496.57;;;119.47;;
4202;SDS011;2115;51.038;7.006;2023-03-03T09:39:50;490.87;;;116.97;;
4202;SDS011;2115;51.038;7.006;2023-03-03T09:45:33;502.97;;;120.97;;
4202;SDS011;2115;51.038;7.006;2023-03-03T09:53:31;493.47;;;120.27;;
4202;SDS011;2115;51.038;7.006;2023-03-03T09:56:31;494.20;;;118.97;;
4202;SDS011;2115;51.038;7.006;2023-03-03T10:12:19;511.20;;;127.27;;
4202;SDS011;2115;51.038;7.006;2023-03-03T10:17:48;502.77;;;122.43;;
4202;SDS011;2115;51.038;7.006;2023-03-03T10:20:44;532.50;;;135.83;;
4202;SDS011;2115;51.038;7.006;2023-03-03T10:38:02;489.20;;;114.13;;
4202;SDS011;2115;51.038;7.006;2023-03-03T10:40:39;512.40;;;125.23;;
4202;SDS011;2115;51.038;7.006;2023-03-03T10:43:14;509.80;;;123.67;;
4202;SDS011;2115;51.038;7.006;2023-03-03T10:53:54;529.43;;;132.50;;
4202;SDS011;2115;51.038;7.006;2023-03-03T10:56:36;513.43;;;124.57;;
4202;SDS011;2115;51.038;7.006;2023-03-03T11:01:46;511.87;;;122.57;;
4202;SDS011;2115;51.038;7.006;2023-03-03T11:07:55;512.47;;;122.47;;
4202;SDS011;2115;51.038;7.006;2023-03-03T11:18:09;527.87;;;131.17;;
4202;SDS011;2115;51.038;7.006;2023-03-03T11:23:28;527.97;;;127.50;;
4202;SDS011;2115;51.038;7.006;2023-03-03T11:26:11;525.00;;;126.83;;
4202;SDS011;2115;51.038;7.006;2023-03-03T11:31:42;515.20;;;121.53;;
4202;SDS011;2115;51.038;7.006;2023-03-03T11:39:17;515.90;;;124.37;;
4202;SDS011;2115;51.038;7.006;2023-03-03T11:41:50;511.73;;;124.63;;
4202;SDS011;2115;51.038;7.006;2023-03-03T11:44:21;515.83;;;125.57;;
4202;SDS011;2115;51.038;7.006;2023-03-03T11:50:00;510.63;;;122.67;;
4202;SDS011;2115;51.038;7.006;2023-03-03T11:55:46;521.63;;;130.83;;
4202;SDS011;2115;51.038;7.006;2023-03-03T11:58:19;502.17;;;119.40;;
4202;SDS011;2115;51.038;7.006;2023-03-03T12:01:07;524.80;;;126.90;;
4202;SDS011;2115;51.038;7.006;2023-03-03T12:03:59;510.60;;;122.17;;
4202;SDS011;2115;51.038;7.006;2023-03-03T12:11:46;528.30;;;132.20;;
4202;SDS011;2115;51.038;7.006;2023-03-03T12:14:27;530.63;;;131.10;;
4202;SDS011;2115;51.038;7.006;2023-03-03T12:22:44;521.67;;;124.80;;
4202;SDS011;2115;51.038;7.006;2023-03-03T12:25:36;524.50;;;123.27;;
4202;SDS011;2115;51.038;7.006;2023-03-03T12:38:39;531.40;;;131.13;;
4202;SDS011;2115;51.038;7.006;2023-03-03T12:43:44;562.07;;;136.47;;
4202;SDS011;2115;51.038;7.006;2023-03-03T12:48:41;599.83;;;158.00;;
4202;SDS011;2115;51.038;7.006;2023-03-03T12:51:17;611.60;;;170.57;;
4202;SDS011;2115;51.038;7.006;2023-03-03T12:56:12;662.47;;;201.43;;
4202;SDS011;2115;51.038;7.006;2023-03-03T13:01:34;624.53;;;178.93;;
4202;SDS011;2115;51.038;7.006;2023-03-03T13:04:27;606.70;;;154.53;;
4202;SDS011;2115;51.038;7.006;2023-03-03T13:15:01;576.90;;;139.07;;
4202;SDS011;2115;51.038;7.006;2023-03-03T13:23:02;578.37;;;140.60;;
4202;SDS011;2115;51.038;7.006;2023-03-03T13:26:07;577.90;;;143.40;;
4202;SDS011;2115;51.038;7.006;2023-03-03T13:31:47;605.43;;;156.33;;
4202;SDS011;2115;51.038;7.006;2023-03-03T13:34:22;592.40;;;150.10;;
4202;SDS011;2115;51.038;7.006;2023-03-03T13:36:53;586.63;;;143.93;;
4202;SDS011;2115;51.038;7.006;2023-03-03T13:39:22;586.73;;;142.13;;
4202;SDS011;2115;51.038;7.006;2023-03-03T13:41:54;598.47;;;146.33;;
4202;SDS011;2115;51.038;7.006;2023-03-03T13:44:37;592.23;;;149.00;;
4202;SDS011;2115;51.038;7.006;2023-03-03T13:49:48;607.67;;;157.97;;
4202;SDS011;2115;51.038;7.006;2023-03-03T13:52:25;601.37;;;158.30;;
4202;SDS011;2115;51.038;7.006;2023-03-03T13:54:59;611.80;;;158.30;;
4202;SDS011;2115;51.038;7.006;2023-03-03T13:58:10;628.30;;;173.17;;
4202;SDS011;2115;51.038;7.006;2023-03-03T14:06:23;625.13;;;185.70;;
4202;SDS011;2115;51.038;7.006;2023-03-03T14:19:28;638.83;;;197.27;;
4202;SDS011;2115;51.038;7.006;2023-03-03T14:22:20;655.57;;;203.27;;
4202;SDS011;2115;51.038;7.006;2023-03-03T14:25:03;633.90;;;189.53;;
4202;SDS011;2115;51.038;7.006;2023-03-03T14:27:38;625.23;;;177.80;;
4202;SDS011;2115;51.038;7.006;2023-03-03T14:35:39;637.10;;;190.20;;
4202;SDS011;2115;51.038;7.006;2023-03-03T14:38:13;646.80;;;190.33;;
4202;SDS011;2115;51.038;7.006;2023-03-03T14:40:41;641.47;;;194.27;;
4202;SDS011;2115;51.038;7.006;2023-03-03T14:46:46;637.00;;;196.10;;
4202;SDS011;2115;51.038;7.006;2023-03-03T14:49:01;621.90;;;175.40;;
4202;SDS011;2115;51.038;7.006;2023-03-03T14:51:41;617.90;;;174.10;;
4202;SDS011;2115;51.038;7.006;2023-03-03T14:54:27;620.67;;;176.70;;
4202;SDS011;2115;51.038;7.006;2023-03-03T15:02:34;614.70;;;163.43;;
4202;SDS011;2115;51.038;7.006;2023-03-03T15:07:47;628.03;;;168.80;;
4202;SDS011;2115;51.038;7.006;2023-03-03T15:10:25;610.07;;;158.07;;
4202;SDS011;2115;51.038;7.006;2023-03-03T15:12:52;602.63;;;149.27;;
4202;SDS011;2115;51.038;7.006;2023-03-03T15:15:18;592.23;;;150.70;;
4202;SDS011;2115;51.038;7.006;2023-03-03T15:25:38;550.87;;;128.10;;
4202;SDS011;2115;51.038;7.006;2023-03-03T15:28:25;555.33;;;129.07;;
4202;SDS011;2115;51.038;7.006;2023-03-03T15:37:14;540.53;;;124.83;;
4202;SDS011;2115;51.038;7.006;2023-03-03T15:48:10;534.00;;;123.33;;
4202;SDS011;2115;51.038;7.006;2023-03-03T15:50:53;534.23;;;124.50;;
4202;SDS011;2115;51.038;7.006;2023-03-03T15:56:29;531.47;;;122.77;;
4202;SDS011;2115;51.038;7.006;2023-03-03T16:04:44;549.87;;;132.17;;
4202;SDS011;2115;51.038;7.006;2023-03-03T16:10:21;518.93;;;119.27;;
4202;SDS011;2115;51.038;7.006;2023-03-03T16:15:40;526.43;;;123.13;;
4202;SDS011;2115;51.038;7.006;2023-03-03T16:18:47;515.60;;;118.57;;
4202;SDS011;2115;51.038;7.006;2023-03-03T16:24:46;524.47;;;122.70;;
4202;SDS011;2115;51.038;7.006;2023-03-03T16:32:47;519.00;;;120.37;;
4202;SDS011;2115;51.038;7.006;2023-03-03T16:35:25;525.83;;;122.17;;
4202;SDS011;2115;51.038;7.006;2023-03-03T16:37:58;516.13;;;121.40;;
4202;SDS011;2115;51.038;7.006;2023-03-03T16:43:10;559.93;;;136.87;;
4202;SDS011;2115;51.038;7.006;2023-03-03T16:45:40;521.30;;;124.93;;
4202;SDS011;2115;51.038;7.006;2023-03-03T16:48:12;515.70;;;124.03;;
4202;SDS011;2115;51.038;7.006;2023-03-03T17:24:27;533.00;;;131.20;;
4202;SDS011;2115;51.038;7.006;2023-03-03T17:30:05;516.20;;;124.33;;
4202;SDS011;2115;51.038;7.006;2023-03-03T17:32:40;517.37;;;124.00;;
4202;SDS011;2115;51.038;7.006;2023-03-03T17:37:51;512.43;;;124.33;;
4202;SDS011;2115;51.038;7.006;2023-03-03T17:45:44;509.87;;;123.23;;
4202;SDS011;2115;51.038;7.006;2023-03-03T17:56:15;504.50;;;123.13;;
4202;SDS011;2115;51.038;7.006;2023-03-03T18:01:24;526.43;;;130.80;;
4202;SDS011;2115;51.038;7.006;2023-03-03T18:12:31;491.30;;;119.47;;
4202;SDS011;2115;51.038;7.006;2023-03-03T18:20:50;491.13;;;118.13;;
4202;SDS011;2115;51.038;7.006;2023-03-03T18:25:56;498.80;;;121.97;;
4202;SDS011;2115;51.038;7.006;2023-03-03T18:28:35;504.10;;;124.30;;
4202;SDS011;2115;51.038;7.006;2023-03-03T18:31:23;502.73;;;125.30;;
4202;SDS011;2115;51.038;7.006;2023-03-03T18:34:00;499.97;;;125.00;;
4202;SDS011;2115;51.038;7.006;2023-03-03T18:38:56;495.40;;;119.50;;
4202;SDS011;2115;51.038;7.006;2023-03-03T18:41:27;482.33;;;117.77;;
4202;SDS011;2115;51.038;7.006;2023-03-03T18:49:03;488.37;;;119.57;;
4202;SDS011;2115;51.038;7.006;2023-03-03T18:56:46;477.83;;;115.27;;
4202;SDS011;2115;51.038;7.006;2023-03-03T19:04:43;472.90;;;115.93;;
4202;SDS011;2115;51.038;7.006;2023-03-03T19:09:49;480.60;;;119.93;;
4202;SDS011;2115;51.038;7.006;2023-03-03T19:12:40;520.73;;;137.17;;
4202;SDS011;2115;51.038;7.006;2023-03-03T19:18:01;478.43;;;119.17;;
4202;SDS011;2115;51.038;7.006;2023-03-03T19:20:37;481.33;;;121.07;;
4202;SDS011;2115;51.038;7.006;2023-03-03T19:23:05;471.20;;;116.43;;
4202;SDS011;2115;51.038;7.006;2023-03-03T19:25:34;475.63;;;119.03;;
4202;SDS011;2115;51.038;7.006;2023-03-03T19:38:50;477.03;;;118.60;;
4202;SDS011;2115;51.038;7.006;2023-03-03T19:44:11;478.23;;;118.43;;
4202;SDS011;2115;51.038;7.006;2023-03-03T19:46:51;487.70;;;122.07;;
4202;SDS011;2115;51.038;7.006;2023-03-03T19:49:23;479.50;;;118.93;;
4202;SDS011;2115;51.038;7.006;2023-03-03T19:51:56;484.73;;;128.37;;
4202;SDS011;2115;51.038;7.006;2023-03-03T19:58:03;495.40;;;135.83;;
4202;SDS011;2115;51.038;7.006;2023-03-03T20:05:44;495.40;;;130.17;;
4202;SDS011;2115;51.038;7.006;2023-03-03T20:16:44;499.27;;;136.60;;
4202;SDS011;2115;51.038;7.006;2023-03-03T20:30:45;503.17;;;134.07;;
4202;SDS011;2115;51.038;7.006;2023-03-03T20:41:12;509.83;;;138.03;;
4202;SDS011;2115;51.038;7.006;2023-03-03T20:43:50;506.07;;;135.80;;
4202;SDS011;2115;51.038;7.006;2023-03-03T20:46:25;517.57;;;140.27;;
4202;SDS011;2115;51.038;7.006;2023-03-03T20:59:52;513.80;;;150.23;;
4202;SDS011;2115;51.038;7.006;2023-03-03T21:04:45;513.13;;;154.37;;
4202;SDS011;2115;51.038;7.006;2023-03-03T21:07:48;513.17;;;137.50;;
4202;SDS011;2115;51.038;7.006;2023-03-03T21:10:15;503.50;;;135.40;;
4202;SDS011;2115;51.038;7.006;2023-03-03T21:12:47;506.97;;;135.63;;
4202;SDS011;2115;51.038;7.006;2023-03-03T21:15:46;507.73;;;134.77;;
4202;SDS011;2115;51.038;7.006;2023-03-03T21:18:18;521.63;;;143.73;;
4202;SDS011;2115;51.038;7.006;2023-03-03T21:20:53;507.03;;;137.03;;
4202;SDS011;2115;51.038;7.006;2023-03-03T21:23:18;507.07;;;137.40;;
4202;SDS011;2115;51.038;7.006;2023-03-03T21:30:58;503.37;;;139.00;;
4202;SDS011;2115;51.038;7.006;2023-03-03T21:33:42;507.30;;;136.10;;
4202;SDS011;2115;51.038;7.006;2023-03-03T21:36:12;506.07;;;149.00;;
4202;SDS011;2115;51.038;7.006;2023-03-03T21:38:42;509.30;;;155.30;;